New Nada — 3ELP9 — position and weather

sailwx.info

Track history (hours):
 
Tides and Currents Weather Stations Pressure Air Temp Water Temp Dewpoint Dewpoint Depression Visibility Wind Speed Wind Dir Waves Ship Positions

New Nada

Last reported at 2016-Nov-24 12:31 UTC. Time now 2016-Dec-09 19:46 UTC.
Position N 48°01' W 125°37'.
Warning: this ship's position is 15 days out of date.

Length 180 m; beam 32.2 m.

Type: Cargo ship. MMSI: 356005000.

Date/timePositionNaut miles runAvg speedWind from/ knotsBaromVisibWave heightAir tempDewpointWater temp
2016-Nov-24 12:31N 48°01' W 125°37'1212.6
2016-Nov-24 11:33N 48°11' W 125°25'1111.4
2016-Nov-24 10:33N 48°20' W 125°15'1010.4
2016-Nov-24 09:33N 48°28' W 125°05'1010.3
2016-Nov-24 08:33N 48°31' W 124°50'1414.0
2016-Nov-24 07:33N 48°26' W 124°29'1616.5
2016-Nov-24 06:33N 48°20' W 124°07'1616.2
2016-Nov-24 05:33N 48°16' W 123°43'1212.4
2016-Nov-24 04:33N 48°21' W 123°26'10 9.8
2016-Nov-24 03:33N 48°25' W 123°13'1615.7
2016-Nov-24 02:34N 48°41' W 123°16'1312.8
2016-Nov-24 01:33N 48°51' W 123°04'1515.6
2016-Nov-24 00:33N 49°02' W 123°21'9 8.6
2016-Nov-23 23:33N 49°07' W 123°10'1010.0
2016-Nov-23 22:33N 49°10' W 122°56'1 0.8
2016-Nov-23 21:31N 49°11' W 122°55'0 0.0
2016-Nov-23 20:31N 49°11' W 122°55'0 0.0
2016-Nov-23 19:31N 49°11' W 122°55'0 0.0
2016-Nov-23 18:31N 49°11' W 122°55'0 0.0
2016-Nov-23 17:31N 49°11' W 122°55'0 0.0
2016-Nov-23 16:31N 49°11' W 122°55'0 0.0
2016-Nov-23 15:31N 49°11' W 122°55'0 0.0
2016-Nov-23 14:31N 49°11' W 122°55'0 0.0
2016-Nov-23 13:31N 49°11' W 122°55'0 0.0
2016-Nov-23 12:31N 49°11' W 122°55'0 0.0
2016-Nov-23 11:31N 49°11' W 122°55'0 0.0
2016-Nov-23 10:31N 49°11' W 122°55'0 0.0
2016-Nov-23 09:31N 49°11' W 122°55'0 0.0
2016-Nov-23 08:31N 49°11' W 122°55'0 0.0
2016-Nov-23 07:33N 49°11' W 122°55'7 6.9
2016-Nov-23 06:34N 49°07' W 123°04'21 7.1
2016-Nov-23 03:33N 48°46' W 123°02'1212.4
2016-Nov-23 02:33N 48°37' W 123°13'2110.4
2016-Nov-23 00:33N 48°17' W 123°26'1111.0
2016-Nov-22 23:33N 48°14' W 123°41'1414.0
2016-Nov-22 22:34N 48°15' W 124°02'2813.9
2016-Nov-22 20:33N 48°27' W 124°40'1312.9
2016-Nov-22 19:33N 48°28' W 124°59'2913.1
2016-Nov-22 17:21N 48°03' W 125°21'5517.6
2016-Nov-22 14:14N 47°10' W 125°00'5 7.8
2016-Nov-22 13:33N 47°05' W 124°57'5016.5
2016-Nov-22 10:33N 46°22' W 124°23'1212.3
2016-Nov-22 09:34N 46°13' W 124°10'1211.8
2016-Nov-22 08:34N 46°11' W 123°53'1111.3
2016-Nov-22 07:33N 46°16' W 123°38'2211.0
2016-Nov-22 05:33N 46°11' W 123°07'1212.0
2016-Nov-22 04:34N 46°04' W 122°53'1211.8
2016-Nov-22 03:33N 45°53' W 122°47'1312.8
2016-Nov-22 02:33N 45°40' W 122°46'4 1.3
2016-Nov-21 23:33N 45°36' W 122°47'0 0.0
2016-Nov-21 21:21N 45°36' W 122°47'0 0.0
2016-Nov-21 17:34N 45°36' W 122°47'0 0.0
2016-Nov-21 14:33N 45°36' W 122°47'0 0.0
2016-Nov-21 13:34N 45°36' W 122°47'0 0.0
2016-Nov-21 12:33N 45°36' W 122°47'0 0.0
2016-Nov-21 11:34N 45°36' W 122°47'0 0.0
2016-Nov-21 10:33N 45°36' W 122°47'18 9.2
2016-Nov-21 08:33N 45°54' W 122°48'1111.5
2016-Nov-21 07:34N 46°05' W 122°54'2211.0
2016-Nov-21 05:34N 46°10' W 123°25'1010.0
2016-Nov-21 04:33N 46°15' W 123°37'18 9.2
2016-Nov-21 02:33N 46°15' W 124°04'2311.3
2016-Nov-21 00:33N 46°13' W 124°36'2210.8
2016-Nov-20 22:33N 46°18' W 125°07'1110.5
2016-Nov-20 21:33N 46°21' W 125°21'  
Track history (hours):
 
Tides and Currents Weather Stations Pressure Air Temp Water Temp Dewpoint Dewpoint Depression Visibility Wind Speed Wind Dir Waves Ship Positions

New Nada

Last reported at 2016-Nov-24 12:31 UTC. Time now 2016-Dec-09 19:46 UTC.
Position N 48°01' W 125°37'.
Warning: this ship's position is 15 days out of date.

Length 180 m; beam 32.2 m.

Type: Cargo ship. MMSI: 356005000.

Date/timePositionNaut miles runAvg speedWind from/ knotsBaromVisibWave heightAir tempDewpointWater temp
2016-Nov-24 12:31N 48°01' W 125°37'1212.6
2016-Nov-24 11:33N 48°11' W 125°25'1111.4
2016-Nov-24 10:33N 48°20' W 125°15'1010.4
2016-Nov-24 09:33N 48°28' W 125°05'1010.3
2016-Nov-24 08:33N 48°31' W 124°50'1414.0
2016-Nov-24 07:33N 48°26' W 124°29'1616.5
2016-Nov-24 06:33N 48°20' W 124°07'1616.2
2016-Nov-24 05:33N 48°16' W 123°43'1212.4
2016-Nov-24 04:33N 48°21' W 123°26'10 9.8
2016-Nov-24 03:33N 48°25' W 123°13'1615.7
2016-Nov-24 02:34N 48°41' W 123°16'1312.8
2016-Nov-24 01:33N 48°51' W 123°04'1515.6
2016-Nov-24 00:33N 49°02' W 123°21'9 8.6
2016-Nov-23 23:33N 49°07' W 123°10'1010.0
2016-Nov-23 22:33N 49°10' W 122°56'1 0.8
2016-Nov-23 21:31N 49°11' W 122°55'0 0.0
2016-Nov-23 20:31N 49°11' W 122°55'0 0.0
2016-Nov-23 19:31N 49°11' W 122°55'0 0.0
2016-Nov-23 18:31N 49°11' W 122°55'0 0.0
2016-Nov-23 17:31N 49°11' W 122°55'0 0.0
2016-Nov-23 16:31N 49°11' W 122°55'0 0.0
2016-Nov-23 15:31N 49°11' W 122°55'0 0.0
2016-Nov-23 14:31N 49°11' W 122°55'0 0.0
2016-Nov-23 13:31N 49°11' W 122°55'0 0.0
2016-Nov-23 12:31N 49°11' W 122°55'0 0.0
2016-Nov-23 11:31N 49°11' W 122°55'0 0.0
2016-Nov-23 10:31N 49°11' W 122°55'0 0.0
2016-Nov-23 09:31N 49°11' W 122°55'0 0.0
2016-Nov-23 08:31N 49°11' W 122°55'0 0.0
2016-Nov-23 07:33N 49°11' W 122°55'7 6.9
2016-Nov-23 06:34N 49°07' W 123°04'21 7.1
2016-Nov-23 03:33N 48°46' W 123°02'1212.4
2016-Nov-23 02:33N 48°37' W 123°13'2110.4
2016-Nov-23 00:33N 48°17' W 123°26'1111.0
2016-Nov-22 23:33N 48°14' W 123°41'1414.0
2016-Nov-22 22:34N 48°15' W 124°02'2813.9
2016-Nov-22 20:33N 48°27' W 124°40'1312.9
2016-Nov-22 19:33N 48°28' W 124°59'2913.1
2016-Nov-22 17:21N 48°03' W 125°21'5517.6
2016-Nov-22 14:14N 47°10' W 125°00'5 7.8
2016-Nov-22 13:33N 47°05' W 124°57'5016.5
2016-Nov-22 10:33N 46°22' W 124°23'1212.3
2016-Nov-22 09:34N 46°13' W 124°10'1211.8
2016-Nov-22 08:34N 46°11' W 123°53'1111.3
2016-Nov-22 07:33N 46°16' W 123°38'2211.0
2016-Nov-22 05:33N 46°11' W 123°07'1212.0
2016-Nov-22 04:34N 46°04' W 122°53'1211.8
2016-Nov-22 03:33N 45°53' W 122°47'1312.8
2016-Nov-22 02:33N 45°40' W 122°46'4 1.3
2016-Nov-21 23:33N 45°36' W 122°47'0 0.0
2016-Nov-21 21:21N 45°36' W 122°47'0 0.0
2016-Nov-21 17:34N 45°36' W 122°47'0 0.0
2016-Nov-21 14:33N 45°36' W 122°47'0 0.0
2016-Nov-21 13:34N 45°36' W 122°47'0 0.0
2016-Nov-21 12:33N 45°36' W 122°47'0 0.0
2016-Nov-21 11:34N 45°36' W 122°47'0 0.0
2016-Nov-21 10:33N 45°36' W 122°47'18 9.2
2016-Nov-21 08:33N 45°54' W 122°48'1111.5
2016-Nov-21 07:34N 46°05' W 122°54'2211.0
2016-Nov-21 05:34N 46°10' W 123°25'1010.0
2016-Nov-21 04:33N 46°15' W 123°37'18 9.2
2016-Nov-21 02:33N 46°15' W 124°04'2311.3
2016-Nov-21 00:33N 46°13' W 124°36'2210.8
2016-Nov-20 22:33N 46°18' W 125°07'1110.5
2016-Nov-20 21:33N 46°21' W 125°21'  

Dump ship's entire track history